Freeburg, Illinois
Current Conditions -  °F | °C
As of 3:58 PM on Thursday 27 Nov 2014 (Local Time) from KBLV Reporting Station
Clear Clear  
Wind Chill: 25°   Ceiling: Unl
Heat Index: 32°   Visibility: 10mi
Dew Point: 22°   Wind: 8mph
Humidity: 66%   Direction: 330°NNW
Pressure: 30.45"   Gusts: NA
Location:  38.43°N, 89.91°W
Report Text: KBLV 272158Z AUTO 33007KT 10SM CLR 00/M05 A3045 RMK AO2 SLP320 T00021055
Loading
Personal Weather Stations






























Interactive Weather Map New forecast layout! Learn more

10-Day Weather Forecast

Advertisements
Track Severe Weather on mobile